createdAt,value
2023-03-16T00:00:43.331Z,5.48
2023-03-16T00:03:19.288Z,5.50
2023-03-16T00:05:51.385Z,5.29
2023-03-16T00:08:18.542Z,5.30
2023-03-16T00:10:46.775Z,5.27
2023-03-16T00:13:17.700Z,5.53
2023-03-16T00:15:52.371Z,5.60
2023-03-16T00:18:19.614Z,5.21
2023-03-16T00:20:55.441Z,5.33
2023-03-16T00:23:28.815Z,5.01
2023-03-16T00:25:59.938Z,5.39
2023-03-16T00:28:27.795Z,5.38
2023-03-16T00:30:59.186Z,5.66
2023-03-16T00:33:27.449Z,5.34
2023-03-16T00:36:02.493Z,4.94
2023-03-16T00:38:35.092Z,5.19
2023-03-16T00:41:07.126Z,5.42
2023-03-16T00:43:41.085Z,5.21
2023-03-16T00:46:10.132Z,4.63
2023-03-16T00:48:42.533Z,4.66
2023-03-16T00:51:15.439Z,5.25
2023-03-16T00:53:44.022Z,5.02
2023-03-16T00:56:11.269Z,4.43
2023-03-16T00:58:39.626Z,4.71
2023-03-16T01:01:10.355Z,4.39
2023-03-16T01:03:37.264Z,4.67
2023-03-16T01:06:10.331Z,4.91
2023-03-16T01:08:40.921Z,4.83
2023-03-16T01:11:10.706Z,4.74
2023-03-16T01:13:38.340Z,4.56
2023-03-16T01:16:05.471Z,4.65
2023-03-16T01:18:35.687Z,4.40
2023-03-16T01:21:03.993Z,4.44
2023-03-16T01:23:31.625Z,4.56
2023-03-16T01:25:59.303Z,4.54
2023-03-16T01:28:28.293Z,4.43
2023-03-16T01:31:02.004Z,4.10
2023-03-16T01:33:29.576Z,4.69
2023-03-16T01:36:01.765Z,4.84
2023-03-16T01:38:28.940Z,4.42
2023-03-16T01:40:55.950Z,4.09
2023-03-16T01:43:26.707Z,4.48
2023-03-16T01:46:05.455Z,4.58
2023-03-16T01:48:53.492Z,4.85
2023-03-16T01:51:32.747Z,4.89
2023-03-16T01:54:22.405Z,4.73
2023-03-16T01:56:57.072Z,4.70
2023-03-16T01:59:28.937Z,4.37
2023-03-16T02:01:56.652Z,4.51
2023-03-16T02:04:48.321Z,3.72
2023-03-16T02:07:17.939Z,3.97
2023-03-16T02:09:47.100Z,4.41
2023-03-16T02:12:19.260Z,4.74
2023-03-16T02:14:47.958Z,4.58
2023-03-16T02:17:17.300Z,4.67
2023-03-16T02:20:02.241Z,4.95
2023-03-16T02:22:28.999Z,4.79
2023-03-16T02:24:55.717Z,4.38
2023-03-16T02:28:08.736Z,4.57
2023-03-16T02:30:35.691Z,4.23
2023-03-16T02:33:05.189Z,4.69
2023-03-16T02:35:32.504Z,4.70
2023-03-16T02:37:59.703Z,4.45
2023-03-16T02:40:30.256Z,3.94
2023-03-16T02:43:04.447Z,4.26
2023-03-16T02:45:55.452Z,4.29
2023-03-16T02:48:38.164Z,4.38
2023-03-16T02:51:04.924Z,3.94
2023-03-16T02:53:31.619Z,3.92
2023-03-16T02:55:58.218Z,3.82
2023-03-16T02:58:24.956Z,3.64
2023-03-16T03:00:51.589Z,3.95
2023-03-16T03:03:19.011Z,4.01
2023-03-16T03:05:45.717Z,3.65
2023-03-16T03:08:13.102Z,4.07
2023-03-16T03:10:40.113Z,3.60
2023-03-16T03:13:07.496Z,4.02
2023-03-16T03:15:35.392Z,3.69
2023-03-16T03:18:02.553Z,3.44
2023-03-16T03:20:29.453Z,4.01
2023-03-16T03:22:56.274Z,3.90
2023-03-16T03:25:23.103Z,3.30
2023-03-16T03:27:51.068Z,4.02
2023-03-16T03:30:20.288Z,3.94
2023-03-16T03:32:47.181Z,3.98
2023-03-16T03:35:15.323Z,3.79
2023-03-16T03:37:45.256Z,3.79
2023-03-16T03:40:14.448Z,4.03
2023-03-16T03:42:42.161Z,4.22
2023-03-16T03:45:12.679Z,3.96
2023-03-16T03:47:40.923Z,4.62
2023-03-16T03:50:09.130Z,4.21
2023-03-16T03:52:35.769Z,4.29
2023-03-16T03:55:02.441Z,3.88
2023-03-16T03:57:29.100Z,3.56
2023-03-16T03:59:55.813Z,3.48
2023-03-16T04:02:22.581Z,3.49
2023-03-16T04:04:49.298Z,3.90
2023-03-16T04:07:16.243Z,3.98
2023-03-16T04:09:42.911Z,3.80
2023-03-16T04:12:11.210Z,3.87
2023-03-16T04:14:37.927Z,3.90
2023-03-16T04:17:05.004Z,3.84
2023-03-16T04:19:31.865Z,3.76
2023-03-16T04:21:58.583Z,3.81
2023-03-16T04:24:25.251Z,3.66
2023-03-16T04:26:51.845Z,3.66
2023-03-16T04:29:19.648Z,3.98
2023-03-16T04:31:46.908Z,3.97
2023-03-16T04:34:14.076Z,3.71
2023-03-16T04:36:42.169Z,4.23
2023-03-16T04:39:10.498Z,3.92
2023-03-16T04:41:37.434Z,3.64
2023-03-16T04:44:04.842Z,3.46
2023-03-16T04:46:31.814Z,3.47
2023-03-16T04:48:58.712Z,3.02
2023-03-16T04:51:26.502Z,3.29
2023-03-16T04:53:53.313Z,3.47
2023-03-16T04:56:20.604Z,3.25
2023-03-16T04:58:49.453Z,3.40
2023-03-16T05:01:17.437Z,3.96
2023-03-16T05:03:44.275Z,3.15
2023-03-16T05:06:12.175Z,3.67
2023-03-16T05:08:38.818Z,4.04
2023-03-16T05:11:05.640Z,3.82
2023-03-16T05:13:32.505Z,3.91
2023-03-16T05:15:59.221Z,3.32
2023-03-16T05:18:27.126Z,3.51
2023-03-16T05:20:56.080Z,3.42
2023-03-16T05:23:23.107Z,3.66
2023-03-16T05:25:51.374Z,3.73
2023-03-16T05:28:18.048Z,3.67
2023-03-16T05:30:47.865Z,3.64
2023-03-16T05:33:14.554Z,3.52
2023-03-16T05:35:41.220Z,4.10
2023-03-16T05:38:08.720Z,3.30
2023-03-16T05:40:37.228Z,3.22
2023-03-16T05:43:04.504Z,3.26
2023-03-16T05:45:32.402Z,3.18
2023-03-16T05:47:59.165Z,3.63
2023-03-16T05:50:26.700Z,4.11
2023-03-16T05:52:54.271Z,3.48
2023-03-16T05:55:20.899Z,3.40
2023-03-16T05:57:47.553Z,3.30
2023-03-16T06:00:16.325Z,2.91
2023-03-16T06:02:48.337Z,3.38
2023-03-16T06:05:16.513Z,3.68
2023-03-16T06:07:43.603Z,3.76
2023-03-16T06:10:11.510Z,3.54
2023-03-16T06:12:38.872Z,3.07
2023-03-16T06:15:09.329Z,3.27
2023-03-16T06:17:37.566Z,3.56
2023-03-16T06:20:10.512Z,3.28
2023-03-16T06:22:46.640Z,3.79
2023-03-16T06:25:14.944Z,3.69
2023-03-16T06:27:42.227Z,3.82
2023-03-16T06:30:12.058Z,3.44
2023-03-16T06:32:41.932Z,3.13
2023-03-16T06:35:09.649Z,3.38
2023-03-16T06:37:36.330Z,3.60
2023-03-16T06:40:04.039Z,3.58
2023-03-16T06:42:30.698Z,3.54
2023-03-16T06:44:57.554Z,3.41
2023-03-16T06:47:24.290Z,3.71
2023-03-16T06:49:51.876Z,3.53
2023-03-16T06:52:18.577Z,3.52
2023-03-16T06:54:45.181Z,3.32
2023-03-16T06:57:11.938Z,3.58
2023-03-16T06:59:38.589Z,3.47
2023-03-16T07:02:06.571Z,3.60
2023-03-16T07:04:34.315Z,3.50
2023-03-16T07:07:02.224Z,3.18
2023-03-16T07:09:29.280Z,3.69
2023-03-16T07:11:56.291Z,3.66
2023-03-16T07:14:24.788Z,3.74
2023-03-16T07:16:52.887Z,4.07
2023-03-16T07:19:19.745Z,3.69
2023-03-16T07:21:46.461Z,3.64
2023-03-16T07:24:13.180Z,3.72
2023-03-16T07:26:39.825Z,3.82
2023-03-16T07:29:06.531Z,3.22
2023-03-16T07:31:34.733Z,3.47
2023-03-16T07:34:03.522Z,3.61
2023-03-16T07:36:30.211Z,3.97
2023-03-16T07:38:56.905Z,4.30
2023-03-16T07:41:24.797Z,4.00
2023-03-16T07:43:52.015Z,3.32
2023-03-16T07:46:18.700Z,3.52
2023-03-16T07:48:45.688Z,3.53
2023-03-16T07:51:13.957Z,3.97
2023-03-16T07:53:40.780Z,3.88
2023-03-16T07:56:08.011Z,3.85
2023-03-16T07:58:34.699Z,4.08
2023-03-16T08:01:01.696Z,3.71
2023-03-16T08:03:29.836Z,4.10
2023-03-16T08:05:56.537Z,4.16
2023-03-16T08:08:23.518Z,4.09
2023-03-16T08:10:52.737Z,3.92
2023-03-16T08:13:20.600Z,3.89
2023-03-16T08:15:49.462Z,4.01
2023-03-16T08:18:16.353Z,3.95
2023-03-16T08:20:44.706Z,4.33
2023-03-16T08:23:13.261Z,4.37
2023-03-16T08:25:39.890Z,4.47
2023-03-16T08:28:08.918Z,4.66
2023-03-16T08:30:36.009Z,4.53
2023-03-16T08:33:03.534Z,4.43
2023-03-16T08:35:30.248Z,4.82
2023-03-16T08:37:56.885Z,4.42
2023-03-16T08:40:25.099Z,4.24
2023-03-16T08:42:52.523Z,4.48
2023-03-16T08:45:20.029Z,4.21
2023-03-16T08:47:46.807Z,4.38
2023-03-16T08:50:13.748Z,4.37
2023-03-16T08:52:40.895Z,4.46
2023-03-16T08:55:09.697Z,3.93
2023-03-16T08:57:37.616Z,4.00
2023-03-16T09:00:12.807Z,4.00
2023-03-16T09:02:40.849Z,4.30
2023-03-16T09:05:12.826Z,4.65
2023-03-16T09:07:39.671Z,4.08
2023-03-16T09:10:13.536Z,4.25
2023-03-16T09:12:41.059Z,4.80
2023-03-16T09:15:10.224Z,4.92
2023-03-16T09:17:36.868Z,4.62
2023-03-16T09:20:19.616Z,4.93
2023-03-16T09:22:48.809Z,4.47
2023-03-16T09:25:15.674Z,4.00
2023-03-16T09:27:42.753Z,4.45
2023-03-16T09:30:10.530Z,4.89
2023-03-16T09:32:37.593Z,4.63
2023-03-16T09:35:06.398Z,4.20
2023-03-16T09:37:44.628Z,4.30
2023-03-16T09:40:38.288Z,4.79
2023-03-16T09:43:17.444Z,4.45
2023-03-16T09:46:12.114Z,4.32
2023-03-16T09:48:39.923Z,4.42
2023-03-16T09:51:14.613Z,4.77
2023-03-16T09:53:42.081Z,4.70
2023-03-16T09:56:18.351Z,4.81
2023-03-16T09:58:45.773Z,4.59
2023-03-16T10:01:31.062Z,4.71
2023-03-16T10:04:09.909Z,4.57
2023-03-16T10:06:55.398Z,4.51
2023-03-16T10:09:38.417Z,4.73
2023-03-16T10:12:07.908Z,4.95
2023-03-16T10:14:58.742Z,4.85
2023-03-16T10:17:38.915Z,4.98
2023-03-16T10:20:10.767Z,5.01
2023-03-16T10:22:44.916Z,4.85
2023-03-16T10:25:23.674Z,4.77
2023-03-16T10:27:50.806Z,4.45
2023-03-16T10:30:25.805Z,4.61
2023-03-16T10:32:52.900Z,4.83
2023-03-16T10:35:44.932Z,4.86
2023-03-16T10:38:43.218Z,4.77
2023-03-16T10:41:19.185Z,4.66
2023-03-16T10:43:51.952Z,4.57
2023-03-16T10:46:19.074Z,4.41
2023-03-16T10:49:02.236Z,4.97
2023-03-16T10:51:37.378Z,5.23
2023-03-16T10:54:19.797Z,4.96
2023-03-16T10:56:46.436Z,4.91
2023-03-16T10:59:32.057Z,4.91
2023-03-16T11:01:59.650Z,4.49
2023-03-16T11:04:31.884Z,4.44
2023-03-16T11:06:59.279Z,4.64
2023-03-16T11:09:34.896Z,4.71
2023-03-16T11:12:14.212Z,4.49
2023-03-16T11:14:45.038Z,4.79
2023-03-16T11:17:17.771Z,4.65
2023-03-16T11:19:57.864Z,4.52
2023-03-16T11:22:26.209Z,4.40
2023-03-16T11:25:12.664Z,4.53
2023-03-16T11:28:00.324Z,4.87
2023-03-16T11:30:41.414Z,4.85
2023-03-16T11:33:14.270Z,4.46
2023-03-16T11:35:58.772Z,4.80
2023-03-16T11:38:31.668Z,4.30
2023-03-16T11:41:10.733Z,4.66
2023-03-16T11:43:56.996Z,4.17
2023-03-16T11:46:25.668Z,4.27
2023-03-16T11:48:59.975Z,4.75
2023-03-16T11:51:36.607Z,4.22
2023-03-16T11:54:15.466Z,4.13
2023-03-16T11:57:29.722Z,4.39
2023-03-16T12:00:12.998Z,4.33
2023-03-16T12:03:15.091Z,3.89
2023-03-16T12:05:48.685Z,3.51
2023-03-16T12:08:34.102Z,4.09
2023-03-16T12:11:08.412Z,4.27
2023-03-16T12:13:40.916Z,4.19
2023-03-16T12:16:49.176Z,4.21
2023-03-16T12:19:24.971Z,4.20
2023-03-16T12:22:13.913Z,4.47
2023-03-16T12:24:44.095Z,4.69
2023-03-16T12:27:16.299Z,4.46
2023-03-16T12:29:55.738Z,4.17
2023-03-16T12:32:35.657Z,4.65
2023-03-16T12:35:11.847Z,5.15
2023-03-16T12:37:50.379Z,5.15
2023-03-16T12:40:20.563Z,5.00
2023-03-16T12:43:08.429Z,4.80
2023-03-16T12:45:51.888Z,4.43
2023-03-16T12:48:29.912Z,4.37
2023-03-16T12:50:59.713Z,4.04
2023-03-16T12:53:44.093Z,4.20
2023-03-16T12:56:19.703Z,3.57
2023-03-16T12:58:50.281Z,3.72
2023-03-16T13:01:20.862Z,3.95
2023-03-16T13:03:50.904Z,3.65
2023-03-16T13:06:24.977Z,3.70
2023-03-16T13:09:01.403Z,3.81
2023-03-16T13:11:28.683Z,4.17
2023-03-16T13:14:01.085Z,4.53
2023-03-16T13:16:30.658Z,3.94
2023-03-16T13:18:57.610Z,4.49
2023-03-16T13:21:42.719Z,4.87
2023-03-16T13:24:26.124Z,5.02
2023-03-16T13:27:06.623Z,5.06
2023-03-16T13:29:34.010Z,4.73
2023-03-16T13:32:08.729Z,4.32
2023-03-16T13:34:51.021Z,4.14
2023-03-16T13:37:20.665Z,4.78
2023-03-16T13:39:56.054Z,4.69
2023-03-16T13:42:24.649Z,4.66
2023-03-16T13:44:56.688Z,4.66
2023-03-16T13:47:27.790Z,4.72
2023-03-16T13:49:59.513Z,4.98
2023-03-16T13:52:34.435Z,5.39
2023-03-16T13:55:15.385Z,4.57
2023-03-16T13:57:44.377Z,4.74
2023-03-16T14:00:32.406Z,4.69
2023-03-16T14:03:04.412Z,4.97
2023-03-16T14:05:35.262Z,4.94
2023-03-16T14:08:02.322Z,4.62
2023-03-16T14:10:34.402Z,4.19
2023-03-16T14:13:25.544Z,4.07
2023-03-16T14:16:19.913Z,3.73
2023-03-16T14:18:52.119Z,4.07
2023-03-16T14:21:27.699Z,4.40
2023-03-16T14:24:00.175Z,4.47
2023-03-16T14:26:27.221Z,4.96
2023-03-16T14:29:02.791Z,5.00
2023-03-16T14:31:35.812Z,5.18
2023-03-16T14:34:04.957Z,4.22
2023-03-16T14:36:37.249Z,4.74
2023-03-16T14:39:16.919Z,4.86
2023-03-16T14:41:45.396Z,4.87
2023-03-16T14:44:24.512Z,4.66
2023-03-16T14:46:54.228Z,4.01
2023-03-16T14:49:33.618Z,3.83
2023-03-16T14:52:12.196Z,3.94
2023-03-16T14:54:38.791Z,4.14
2023-03-16T14:57:05.932Z,4.21
2023-03-16T14:59:33.838Z,4.18
2023-03-16T15:02:03.234Z,4.10
2023-03-16T15:04:36.475Z,4.06
2023-03-16T15:07:19.441Z,4.19
2023-03-16T15:09:46.387Z,3.84
2023-03-16T15:12:18.161Z,4.36
2023-03-16T15:15:03.351Z,4.49
2023-03-16T15:17:30.510Z,4.24
2023-03-16T15:19:57.448Z,4.71
2023-03-16T15:22:31.769Z,4.82
2023-03-16T15:25:00.202Z,4.32
2023-03-16T15:27:35.788Z,3.81
2023-03-16T15:30:02.524Z,4.28
2023-03-16T15:32:29.251Z,3.98
2023-03-16T15:34:55.927Z,4.23
2023-03-16T15:37:24.451Z,4.00
2023-03-16T15:39:51.502Z,4.32
2023-03-16T15:42:19.409Z,4.40
2023-03-16T15:44:46.824Z,4.27
2023-03-16T15:47:13.566Z,4.36
2023-03-16T15:49:47.212Z,4.37
2023-03-16T15:52:26.887Z,4.15
2023-03-16T15:54:53.668Z,4.58
2023-03-16T15:57:20.938Z,4.67
2023-03-16T15:59:47.642Z,4.46
2023-03-16T16:02:31.997Z,4.41
2023-03-16T16:04:59.560Z,4.76
2023-03-16T16:07:27.201Z,4.38
2023-03-16T16:09:53.808Z,4.89
2023-03-16T16:12:26.839Z,4.67
2023-03-16T16:14:56.328Z,4.33
2023-03-16T16:17:36.620Z,4.62
2023-03-16T16:20:22.916Z,4.84
2023-03-16T16:22:52.040Z,4.70
2023-03-16T16:25:21.357Z,5.02
2023-03-16T16:27:48.272Z,4.65
2023-03-16T16:30:23.518Z,4.55
2023-03-16T16:32:51.424Z,3.88
2023-03-16T16:35:23.046Z,4.02
2023-03-16T16:37:50.600Z,3.71
2023-03-16T16:40:20.041Z,4.06
2023-03-16T16:42:48.280Z,3.84
2023-03-16T16:45:23.798Z,4.40
2023-03-16T16:47:53.172Z,4.55
2023-03-16T16:50:23.492Z,4.42
2023-03-16T16:52:50.317Z,3.90
2023-03-16T16:55:17.942Z,4.38
2023-03-16T16:57:45.614Z,3.92
2023-03-16T17:00:21.386Z,3.99
2023-03-16T17:02:51.690Z,4.02
2023-03-16T17:05:22.432Z,4.41
2023-03-16T17:07:50.243Z,4.40
2023-03-16T17:10:22.773Z,4.59
2023-03-16T17:12:55.296Z,4.51
2023-03-16T17:15:26.563Z,4.07
2023-03-16T17:18:00.043Z,4.19
2023-03-16T17:20:27.483Z,3.64
2023-03-16T17:22:57.285Z,4.19
2023-03-16T17:25:24.665Z,4.32
2023-03-16T17:27:54.567Z,4.19
2023-03-16T17:30:27.641Z,4.26
2023-03-16T17:32:59.357Z,4.56
2023-03-16T17:35:26.328Z,4.51
2023-03-16T17:37:52.948Z,4.09
2023-03-16T17:40:22.752Z,4.33
2023-03-16T17:42:50.474Z,4.57
2023-03-16T17:45:18.584Z,4.52
2023-03-16T17:47:45.333Z,4.56
2023-03-16T17:50:17.986Z,4.03
2023-03-16T17:52:44.669Z,4.37
2023-03-16T17:55:11.516Z,4.31
2023-03-16T17:57:38.710Z,3.82
2023-03-16T18:00:20.363Z,3.58
2023-03-16T18:02:56.001Z,3.85
2023-03-16T18:05:34.785Z,3.56
2023-03-16T18:08:25.980Z,4.21
2023-03-16T18:10:59.176Z,3.93
2023-03-16T18:13:28.137Z,4.38
2023-03-16T18:15:56.039Z,3.93
2023-03-16T18:18:26.378Z,3.45
2023-03-16T18:20:54.938Z,3.60
2023-03-16T18:23:23.515Z,4.18
2023-03-16T18:25:52.622Z,3.93
2023-03-16T18:28:20.686Z,4.23
2023-03-16T18:30:52.110Z,4.12
2023-03-16T18:33:30.139Z,4.65
2023-03-16T18:35:59.782Z,4.45
2023-03-16T18:38:39.324Z,3.77
2023-03-16T18:41:21.037Z,3.65
2023-03-16T18:43:47.779Z,3.73
2023-03-16T18:46:35.881Z,3.85
2023-03-16T18:49:10.769Z,4.44
2023-03-16T18:51:37.462Z,4.17
2023-03-16T18:54:04.952Z,4.47
2023-03-16T18:56:31.879Z,3.96
2023-03-16T18:58:58.460Z,4.23
2023-03-16T19:01:28.935Z,3.84
2023-03-16T19:03:57.857Z,4.06
2023-03-16T19:06:33.686Z,3.93
2023-03-16T19:09:08.775Z,3.90
2023-03-16T19:11:41.549Z,3.99
2023-03-16T19:14:24.524Z,3.98
2023-03-16T19:16:52.539Z,4.25
2023-03-16T19:19:23.398Z,4.29
2023-03-16T19:21:53.809Z,4.69
2023-03-16T19:24:34.577Z,4.87
2023-03-16T19:27:02.267Z,4.08
2023-03-16T19:29:34.300Z,4.20
2023-03-16T19:32:02.270Z,4.00
2023-03-16T19:34:29.230Z,4.05
2023-03-16T19:36:56.011Z,4.11
2023-03-16T19:39:22.749Z,4.10
2023-03-16T19:41:56.511Z,4.02
2023-03-16T19:44:26.555Z,3.80
2023-03-16T19:46:53.711Z,3.64
2023-03-16T19:49:27.102Z,3.79
2023-03-16T19:51:55.372Z,4.00
2023-03-16T19:54:28.207Z,4.19
2023-03-16T19:56:56.510Z,4.06
2023-03-16T19:59:26.735Z,4.21
2023-03-16T20:01:53.520Z,4.48
2023-03-16T20:04:25.253Z,4.56
2023-03-16T20:06:53.774Z,3.93
2023-03-16T20:09:20.879Z,4.34
2023-03-16T20:11:48.587Z,4.39
2023-03-16T20:14:29.157Z,4.12
2023-03-16T20:16:56.082Z,4.49
2023-03-16T20:19:23.225Z,4.22
2023-03-16T20:21:49.944Z,4.17
2023-03-16T20:24:19.240Z,4.42
2023-03-16T20:26:48.528Z,4.53
2023-03-16T20:29:44.491Z,4.20
2023-03-16T20:32:23.459Z,4.49
2023-03-16T20:34:51.306Z,4.46
2023-03-16T20:37:27.160Z,4.39
2023-03-16T20:39:56.089Z,3.61
2023-03-16T20:42:27.629Z,4.18
2023-03-16T20:44:54.472Z,4.25
2023-03-16T20:47:23.978Z,4.08
2023-03-16T20:49:52.452Z,4.30
2023-03-16T20:52:30.448Z,4.48
2023-03-16T20:54:58.088Z,4.70
2023-03-16T20:57:27.590Z,4.12
2023-03-16T20:59:55.452Z,4.28
2023-03-16T21:02:29.743Z,4.57
2023-03-16T21:04:59.343Z,4.74
2023-03-16T21:07:26.076Z,4.72
2023-03-16T21:09:52.815Z,4.70
2023-03-16T21:12:32.215Z,5.08
2023-03-16T21:15:00.284Z,4.85
2023-03-16T21:17:33.082Z,4.83
2023-03-16T21:20:00.924Z,5.21
2023-03-16T21:22:30.429Z,5.21
2023-03-16T21:24:57.907Z,4.87
2023-03-16T21:27:32.951Z,4.66
2023-03-16T21:30:07.327Z,4.62
2023-03-16T21:32:34.087Z,4.73
2023-03-16T21:35:00.868Z,4.25
2023-03-16T21:37:28.009Z,3.96
2023-03-16T21:39:54.759Z,3.98
2023-03-16T21:42:22.265Z,4.42
2023-03-16T21:44:48.901Z,4.83
2023-03-16T21:47:26.063Z,4.55
2023-03-16T21:49:54.670Z,4.47
2023-03-16T21:52:23.775Z,4.17
2023-03-16T21:54:52.843Z,4.64
2023-03-16T21:57:19.991Z,4.75
2023-03-16T21:59:47.172Z,4.93
2023-03-16T22:02:22.673Z,5.12
2023-03-16T22:04:50.853Z,5.32
2023-03-16T22:07:18.302Z,5.01
2023-03-16T22:09:45.480Z,5.05
2023-03-16T22:12:14.034Z,5.01
2023-03-16T22:14:41.886Z,4.76
2023-03-16T22:17:21.878Z,4.88
2023-03-16T22:19:48.770Z,4.77
2023-03-16T22:22:17.538Z,4.75
2023-03-16T22:24:44.193Z,5.11
2023-03-16T22:27:19.108Z,5.29
2023-03-16T22:29:45.852Z,4.80
2023-03-16T22:32:18.173Z,5.08
2023-03-16T22:34:51.024Z,4.87
2023-03-16T22:37:21.193Z,4.55
2023-03-16T22:39:49.286Z,4.46
2023-03-16T22:42:26.042Z,3.81
2023-03-16T22:44:54.347Z,4.81
2023-03-16T22:47:26.546Z,4.95
2023-03-16T22:49:53.969Z,4.90
2023-03-16T22:52:25.612Z,4.91
2023-03-16T22:54:52.851Z,5.37
2023-03-16T22:57:19.867Z,5.36
2023-03-16T22:59:48.056Z,5.07
2023-03-16T23:02:16.130Z,5.45
2023-03-16T23:04:42.848Z,5.00
2023-03-16T23:07:12.561Z,4.87
2023-03-16T23:09:39.739Z,4.53
2023-03-16T23:12:14.934Z,4.49
2023-03-16T23:14:42.347Z,4.68
2023-03-16T23:17:20.803Z,4.85
2023-03-16T23:19:49.281Z,4.82
2023-03-16T23:22:16.366Z,4.78
2023-03-16T23:24:43.337Z,4.83
2023-03-16T23:27:27.966Z,4.76
2023-03-16T23:29:54.617Z,4.87
2023-03-16T23:32:21.951Z,5.00
2023-03-16T23:34:48.536Z,5.35
2023-03-16T23:37:15.902Z,5.14
2023-03-16T23:39:42.516Z,5.30
2023-03-16T23:42:09.404Z,5.14
2023-03-16T23:44:36.480Z,5.12
2023-03-16T23:47:03.176Z,4.86
2023-03-16T23:49:33.062Z,5.03
2023-03-16T23:52:01.566Z,4.91
2023-03-16T23:54:31.114Z,4.94
2023-03-16T23:56:58.032Z,4.65
2023-03-16T23:59:26.847Z,4.33
